Time;durP1;ratioP1;P1;durP2;ratioP2;P2;SDS_P1;SDS_P2;PMS_P1;PMS_P2;Temp;Humidity;BMP_temperature;BMP_pressure;BME280_temperature;BME280_humidity;BME280_pressure;Samples;Min_cycle;Max_cycle;Signal;HPM_P1;HPM_P2
2022/04/28 00:02:15;;;;;;;14.48;6.88;;;4.30;99.90;;;;;;4974120;28;20368;-80
2022/04/28 00:04:41;;;;;;;20.23;7.97;;;4.40;99.90;;;;;;4978450;28;20041;-80
2022/04/28 00:07:07;;;;;;;17.65;7.22;;;4.60;99.90;;;;;;4965355;28;20464;-80
2022/04/28 00:09:32;;;;;;;13.35;6.93;;;4.60;99.90;;;;;;4996214;28;20053;-80
2022/04/28 00:11:59;;;;;;;16.25;7.28;;;4.70;99.90;;;;;;4975022;28;20081;-79
2022/04/28 00:14:24;;;;;;;16.95;7.68;;;4.80;99.90;;;;;;4995037;28;20045;-82
2022/04/28 00:16:50;;;;;;;13.85;7.00;;;4.80;99.90;;;;;;4992975;28;20489;-80
2022/04/28 00:19:16;;;;;;;16.75;7.97;;;4.90;99.90;;;;;;4992624;28;20080;-79
2022/04/28 00:21:41;;;;;;;12.07;6.65;;;4.90;99.90;;;;;;5026001;28;20054;-80
2022/04/28 00:24:07;;;;;;;21.30;8.60;;;5.00;99.90;;;;;;4965993;28;20045;-80
2022/04/28 00:26:33;;;;;;;13.35;7.45;;;5.10;99.90;;;;;;4971517;28;20137;-80
2022/04/28 00:28:58;;;;;;;16.85;7.55;;;5.10;99.90;;;;;;5010429;28;20136;-80
2022/04/28 00:31:24;;;;;;;13.25;7.72;;;5.20;99.90;;;;;;4959652;28;20041;-81
2022/04/28 00:33:50;;;;;;;16.45;8.43;;;5.20;99.90;;;;;;4998357;28;20069;-79
2022/04/28 00:36:16;;;;;;;13.10;6.50;;;5.30;99.90;;;;;;4976527;28;20488;-81
2022/04/28 00:38:42;;;;;;;15.73;7.05;;;5.40;99.90;;;;;;4988013;28;20381;-80
2022/04/28 00:41:08;;;;;;;14.55;6.47;;;5.40;99.90;;;;;;4977720;28;20089;-81
2022/04/28 00:43:50;;;;;;;15.90;7.28;;;5.50;99.90;;;;;;4973769;28;20141;-80
2022/04/28 00:46:17;;;;;;;16.55;7.60;;;5.50;99.90;;;;;;5009684;28;20565;-80
2022/04/28 00:51:28;;;;;;;16.15;7.60;;;5.60;99.90;;;;;;5016906;28;20061;-81
2022/04/28 00:53:55;;;;;;;11.50;7.28;;;5.70;99.90;;;;;;5009539;28;20049;-81
2022/04/28 00:56:21;;;;;;;15.82;8.20;;;5.70;99.90;;;;;;4990657;28;20042;-80
2022/04/28 00:58:49;;;;;;;16.35;8.38;;;5.80;99.90;;;;;;4976940;28;20580;-80
2022/04/28 01:01:16;;;;;;;16.33;8.10;;;5.90;99.90;;;;;;4977162;28;20122;-79
2022/04/28 01:03:42;;;;;;;13.18;7.78;;;5.80;99.90;;;;;;5008824;28;20053;-80
2022/04/28 01:06:07;;;;;;;14.38;6.85;;;5.80;99.90;;;;;;4978942;28;20088;-80
2022/04/28 01:08:33;;;;;;;16.00;7.55;;;5.90;99.90;;;;;;4975662;28;20082;-80
2022/04/28 01:11:00;;;;;;;12.45;6.28;;;5.90;99.90;;;;;;4993544;28;20080;-80
2022/04/28 01:13:26;;;;;;;10.50;7.00;;;5.90;99.90;;;;;;4981488;28;20057;-81
2022/04/28 01:15:52;;;;;;;12.93;6.78;;;5.90;99.90;;;;;;4975005;28;20425;-80
2022/04/28 01:18:18;;;;;;;12.73;6.10;;;5.90;99.90;;;;;;5011333;28;20058;-80
2022/04/28 01:20:44;;;;;;;17.38;6.60;;;5.90;99.90;;;;;;5009414;28;20390;-81
2022/04/28 01:23:11;;;;;;;9.55;5.15;;;5.80;99.90;;;;;;5026328;28;20132;-80
2022/04/28 01:25:37;;;;;;;10.40;5.53;;;5.90;99.90;;;;;;5029580;28;20050;-80
2022/04/28 01:28:03;;;;;;;13.20;5.10;;;5.80;99.90;;;;;;4977701;28;20056;-79
2022/04/28 01:30:28;;;;;;;10.35;4.25;;;5.90;99.90;;;;;;4973189;28;20046;-80
2022/04/28 01:32:57;;;;;;;11.05;4.40;;;6.00;99.90;;;;;;4974952;28;20080;-81
2022/04/28 01:35:26;;;;;;;11.38;4.15;;;6.10;99.90;;;;;;5011453;28;20046;-80
2022/04/28 01:37:52;;;;;;;9.73;4.70;;;6.10;99.90;;;;;;4997697;28;20111;-80
2022/04/28 01:40:21;;;;;;;13.30;4.50;;;6.30;99.90;;;;;;4982501;28;20057;-80
2022/04/28 01:42:48;;;;;;;14.00;4.60;;;6.30;99.90;;;;;;5009031;28;20132;-80
2022/04/28 01:45:14;;;;;;;11.57;4.57;;;6.40;99.90;;;;;;5012965;28;20103;-80
2022/04/28 01:47:41;;;;;;;20.48;4.90;;;6.50;99.90;;;;;;5031842;28;20045;-80
2022/04/28 01:50:10;;;;;;;8.27;4.22;;;6.50;99.90;;;;;;4992643;28;20050;-81
2022/04/28 01:55:21;;;;;;;14.23;4.85;;;6.50;99.90;;;;;;5016368;28;20072;-80
2022/04/28 01:57:47;;;;;;;11.05;3.70;;;6.50;99.90;;;;;;4987443;28;20401;-81
2022/04/28 02:00:14;;;;;;;16.50;4.50;;;6.60;99.90;;;;;;5009288;28;20076;-80
2022/04/28 02:02:40;;;;;;;11.48;4.30;;;6.60;99.90;;;;;;4991910;28;20042;-80
2022/04/28 02:05:08;;;;;;;16.33;4.70;;;6.60;99.90;;;;;;5008890;28;20042;-81
2022/04/28 02:07:34;;;;;;;12.13;4.28;;;6.60;99.90;;;;;;5007796;28;20057;-81
2022/04/28 02:10:00;;;;;;;9.68;4.30;;;6.70;99.90;;;;;;4992523;28;20092;-80
2022/04/28 02:12:27;;;;;;;9.38;4.20;;;6.70;99.90;;;;;;4989025;28;20092;-80
2022/04/28 02:14:53;;;;;;;8.13;4.22;;;6.60;99.90;;;;;;5006943;28;20046;-81
2022/04/28 02:17:21;;;;;;;10.40;4.20;;;6.60;99.90;;;;;;5000564;28;20085;-80
2022/04/28 02:19:48;;;;;;;8.93;4.07;;;6.70;99.90;;;;;;5007901;28;20472;-80
2022/04/28 02:22:14;;;;;;;13.27;3.97;;;6.70;99.90;;;;;;5024033;28;20076;-80
2022/04/28 02:24:40;;;;;;;12.88;4.50;;;6.70;99.90;;;;;;4993579;28;20504;-81
2022/04/28 02:27:06;;;;;;;7.85;4.38;;;6.80;99.90;;;;;;5011688;28;20080;-79
2022/04/28 02:29:32;;;;;;;9.82;4.63;;;6.70;99.90;;;;;;5008481;28;20042;-82
2022/04/28 02:31:58;;;;;;;12.75;4.15;;;6.80;99.90;;;;;;4975695;28;20164;-79
2022/04/28 02:34:24;;;;;;;10.23;3.97;;;6.90;99.90;;;;;;4976423;28;20133;-80
2022/04/28 02:36:50;;;;;;;9.15;4.30;;;6.80;99.90;;;;;;5006920;28;20508;-80
2022/04/28 02:39:17;;;;;;;9.65;4.18;;;6.90;99.90;;;;;;4976522;28;20045;-79
2022/04/28 02:41:47;;;;;;;7.35;4.20;;;6.80;99.90;;;;;;5005492;28;20057;-81
2022/04/28 02:44:13;;;;;;;13.90;4.45;;;6.90;99.90;;;;;;5011980;28;20045;-80
2022/04/28 02:46:43;;;;;;;11.40;4.07;;;6.90;99.90;;;;;;4976659;28;20047;-81
2022/04/28 02:49:12;;;;;;;12.85;4.13;;;6.90;99.90;;;;;;4994355;28;20084;-80
2022/04/28 02:51:39;;;;;;;10.35;4.30;;;6.90;99.90;;;;;;4991448;28;20052;-79
2022/04/28 02:54:05;;;;;;;10.73;4.20;;;6.90;99.90;;;;;;4974766;28;20081;-81
2022/04/28 02:56:32;;;;;;;12.60;4.80;;;6.90;99.90;;;;;;4991254;28;20099;-80
2022/04/28 02:58:57;;;;;;;10.38;4.85;;;6.90;99.90;;;;;;4990497;28;20037;-80
2022/04/28 03:01:24;;;;;;;10.77;5.05;;;6.90;99.90;;;;;;4981252;28;20104;-80
2022/04/28 03:03:50;;;;;;;14.32;4.38;;;6.90;99.90;;;;;;4975325;28;20057;-80
2022/04/28 03:11:49;;;;;;;10.27;4.03;;;6.90;99.90;;;;;;5012435;28;20507;-81
2022/04/28 03:14:15;;;;;;;11.88;4.10;;;7.00;99.90;;;;;;4990897;28;20046;-81
2022/04/28 03:16:41;;;;;;;9.23;4.07;;;7.00;99.90;;;;;;5031878;28;20049;-81
2022/04/28 03:19:08;;;;;;;10.73;4.32;;;7.00;99.90;;;;;;5008229;28;20059;-80
2022/04/28 03:21:34;;;;;;;7.70;4.60;;;7.00;99.90;;;;;;5007490;28;20054;-81
2022/04/28 03:24:00;;;;;;;11.18;4.90;;;7.00;99.90;;;;;;4991717;28;20045;-80
2022/04/28 03:26:25;;;;;;;12.00;5.10;;;7.00;99.90;;;;;;5011234;28;20041;-80
2022/04/28 03:28:51;;;;;;;13.10;5.20;;;7.00;99.90;;;;;;4983495;28;20091;-80
2022/04/28 03:31:17;;;;;;;11.50;5.20;;;7.00;99.90;;;;;;4975351;28;20050;-80
2022/04/28 03:33:43;;;;;;;9.02;5.30;;;7.00;99.90;;;;;;5028615;28;20049;-81
2022/04/28 03:38:53;;;;;;;10.57;4.93;;;6.90;99.90;;;;;;4991364;28;20088;-81
2022/04/28 03:41:21;;;;;;;11.60;4.90;;;6.90;99.90;;;;;;5009125;28;20068;-81
2022/04/28 03:43:47;;;;;;;11.23;5.50;;;6.80;99.90;;;;;;4990188;28;20045;-81
2022/04/28 03:46:15;;;;;;;7.55;5.30;;;6.80;99.90;;;;;;4974770;28;20042;-81
2022/04/28 03:48:42;;;;;;;7.80;4.85;;;6.80;99.90;;;;;;4974629;28;20046;-81
2022/04/28 03:51:07;;;;;;;8.77;5.60;;;6.80;99.90;;;;;;4975177;28;20049;-81
2022/04/28 03:53:33;;;;;;;8.30;5.32;;;6.90;99.90;;;;;;4971279;28;20409;-82
2022/04/28 03:55:59;;;;;;;10.15;5.30;;;6.90;99.90;;;;;;5024762;28;20504;-81
2022/04/28 03:58:25;;;;;;;10.40;4.78;;;6.90;99.90;;;;;;4998066;28;20468;-80
2022/04/28 04:00:52;;;;;;;14.20;5.38;;;6.90;99.90;;;;;;5010786;28;20053;-80
2022/04/28 04:03:19;;;;;;;6.35;4.47;;;7.00;99.90;;;;;;4990793;28;20056;-80
2022/04/28 04:05:45;;;;;;;9.57;4.35;;;6.90;99.90;;;;;;4975556;28;20069;-80
2022/04/28 04:08:11;;;;;;;10.07;4.53;;;6.90;99.90;;;;;;4964667;28;20038;-80
2022/04/28 04:10:37;;;;;;;13.40;4.65;;;6.80;99.90;;;;;;4992897;28;20054;-79
2022/04/28 04:13:03;;;;;;;10.88;4.90;;;6.90;99.90;;;;;;5010743;28;20064;-80
2022/04/28 04:15:29;;;;;;;9.05;4.05;;;6.90;99.90;;;;;;4981570;28;20438;-80
2022/04/28 04:17:55;;;;;;;11.98;4.78;;;6.90;99.90;;;;;;4993657;28;20053;-81
2022/04/28 04:20:21;;;;;;;9.05;4.32;;;6.90;99.90;;;;;;4990804;28;20050;-80
2022/04/28 04:22:47;;;;;;;10.13;4.40;;;6.80;99.90;;;;;;5008828;28;20052;-80
2022/04/28 04:25:12;;;;;;;11.88;4.72;;;6.80;99.90;;;;;;4978279;28;20046;-82
2022/04/28 04:27:38;;;;;;;11.35;4.22;;;6.90;99.90;;;;;;4994199;28;20133;-80
2022/04/28 04:32:52;;;;;;;10.13;4.68;;;6.90;99.90;;;;;;4971794;28;20049;-81
2022/04/28 04:35:18;;;;;;;9.57;4.40;;;6.90;99.90;;;;;;5029004;28;20054;-79
2022/04/28 04:37:44;;;;;;;11.10;4.00;;;6.90;99.90;;;;;;5009820;28;20113;-80
2022/04/28 04:40:13;;;;;;;12.93;3.95;;;6.90;99.90;;;;;;5009949;28;20050;-80
2022/04/28 04:42:39;;;;;;;13.65;4.47;;;6.80;99.90;;;;;;4966991;28;20049;-81
2022/04/28 04:45:09;;;;;;;9.63;4.30;;;7.00;99.90;;;;;;5011028;28;20129;-80
2022/04/28 04:47:35;;;;;;;10.55;4.57;;;6.90;99.90;;;;;;5008784;28;20061;-81
2022/04/28 04:50:01;;;;;;;10.02;4.65;;;7.00;99.90;;;;;;5011028;28;20522;-80
2022/04/28 04:52:27;;;;;;;8.27;4.20;;;7.00;99.90;;;;;;5006308;28;20065;-80
2022/04/28 04:54:52;;;;;;;11.32;5.38;;;7.10;99.90;;;;;;4991522;28;20057;-81
2022/04/28 04:57:18;;;;;;;11.60;4.38;;;7.10;99.90;;;;;;4971217;28;20054;-80
2022/04/28 04:59:44;;;;;;;10.23;4.10;;;7.20;99.90;;;;;;4992355;28;20052;-81
2022/04/28 05:02:10;;;;;;;8.93;4.25;;;7.30;99.90;;;;;;5033803;28;20046;-80
2022/04/28 05:04:36;;;;;;;10.38;3.88;;;7.30;99.90;;;;;;4949622;28;20084;-81
2022/04/28 05:07:01;;;;;;;8.57;4.00;;;7.40;99.90;;;;;;5008920;28;20054;-80
2022/04/28 05:09:27;;;;;;;9.43;4.40;;;7.40;99.90;;;;;;4977259;28;20548;-80
2022/04/28 05:11:53;;;;;;;11.00;4.65;;;7.40;99.90;;;;;;5009286;28;20061;-81
2022/04/28 05:14:18;;;;;;;11.93;4.63;;;7.50;99.90;;;;;;4967687;28;20045;-80
2022/04/28 05:16:44;;;;;;;10.40;4.32;;;7.60;99.90;;;;;;4968019;28;20042;-82
2022/04/28 05:19:10;;;;;;;13.32;4.90;;;7.60;99.90;;;;;;4974144;28;20126;-80
2022/04/28 05:21:37;;;;;;;12.98;3.97;;;7.70;99.90;;;;;;5007598;28;20572;-79
2022/04/28 05:24:03;;;;;;;10.65;5.13;;;7.70;99.90;;;;;;4976409;28;20128;-80
2022/04/28 05:26:29;;;;;;;13.40;5.00;;;7.70;99.90;;;;;;4986853;28;20100;-80
2022/04/28 05:28:54;;;;;;;11.48;4.28;;;7.80;99.90;;;;;;4987271;28;20062;-80
2022/04/28 05:31:20;;;;;;;10.50;4.45;;;7.80;99.90;;;;;;4980957;28;20052;-80
2022/04/28 05:33:46;;;;;;;15.70;4.70;;;8.00;99.90;;;;;;4996442;28;20050;-80
2022/04/28 05:36:16;;;;;;;12.32;4.22;;;7.90;99.90;;;;;;4989465;28;20122;-80
2022/04/28 05:38:43;;;;;;;11.30;4.78;;;7.90;99.90;;;;;;4975842;28;20504;-80
2022/04/28 05:41:08;;;;;;;7.95;3.95;;;8.00;99.90;;;;;;5008844;28;20073;-79
2022/04/28 05:46:25;;;;;;;12.20;4.50;;;8.10;99.90;;;;;;4978178;28;20493;-76
2022/04/28 05:48:52;;;;;;;13.95;5.00;;;8.10;99.90;;;;;;5017547;28;20049;-81
2022/04/28 05:51:20;;;;;;;13.52;5.63;;;8.20;99.90;;;;;;4999713;28;20137;-79
2022/04/28 05:53:46;;;;;;;9.48;4.50;;;8.20;99.90;;;;;;4991953;28;20073;-82
2022/04/28 05:56:12;;;;;;;11.00;7.40;;;8.20;99.90;;;;;;5027182;28;20073;-81
2022/04/28 05:58:37;;;;;;;14.20;9.02;;;8.30;99.90;;;;;;5000110;28;20515;-80
2022/04/28 06:01:04;;;;;;;20.60;6.75;;;8.30;99.90;;;;;;4976701;28;20061;-80
2022/04/28 06:03:30;;;;;;;14.93;6.15;;;8.30;99.90;;;;;;5000816;28;20137;-80
2022/04/28 06:05:56;;;;;;;10.85;6.05;;;8.40;99.90;;;;;;4976076;28;20752;-79
2022/04/28 06:08:21;;;;;;;12.18;5.40;;;8.40;99.90;;;;;;4975792;28;20054;-80
2022/04/28 06:10:47;;;;;;;18.13;6.97;;;8.60;99.90;;;;;;4975999;28;20053;-82
2022/04/28 06:13:13;;;;;;;10.55;7.40;;;8.60;99.90;;;;;;4992247;28;20099;-81
2022/04/28 06:15:39;;;;;;;12.93;5.68;;;8.80;99.90;;;;;;4979980;28;20420;-80
2022/04/28 06:18:06;;;;;;;11.23;5.07;;;8.90;99.90;;;;;;4996520;28;20073;-80
2022/04/28 06:20:31;;;;;;;13.23;4.95;;;9.00;99.90;;;;;;5007673;28;20089;-80
2022/04/28 06:22:57;;;;;;;16.75;5.03;;;9.10;99.90;;;;;;4992318;28;20127;-81
2022/04/28 06:25:24;;;;;;;10.82;4.35;;;9.30;99.90;;;;;;4992178;28;20085;-80
2022/04/28 06:27:51;;;;;;;13.25;4.25;;;9.40;99.90;;;;;;4976218;28;20662;-82
2022/04/28 06:30:17;;;;;;;14.00;4.70;;;9.50;99.90;;;;;;4992276;28;20052;-80
2022/04/28 06:32:43;;;;;;;14.20;4.75;;;9.70;99.90;;;;;;5008907;28;20527;-80
2022/04/28 06:35:09;;;;;;;11.80;4.47;;;9.70;99.90;;;;;;4991862;28;20042;-81
2022/04/28 06:37:35;;;;;;;12.82;4.95;;;9.90;99.90;;;;;;5009040;28;20512;-80
2022/04/28 06:40:02;;;;;;;9.00;4.65;;;10.00;99.90;;;;;;5008203;28;20042;-79
2022/04/28 06:42:28;;;;;;;17.48;4.93;;;10.00;99.90;;;;;;4991501;28;20061;-80
2022/04/28 06:44:54;;;;;;;13.10;4.90;;;10.20;99.90;;;;;;4975372;28;20041;-80
2022/04/28 06:47:21;;;;;;;7.95;4.38;;;10.20;99.90;;;;;;4992408;28;20085;-80
2022/04/28 06:49:47;;;;;;;13.82;4.40;;;10.40;99.90;;;;;;4976368;28;20062;-80
2022/04/28 06:52:13;;;;;;;13.43;5.22;;;10.50;99.90;;;;;;5011252;28;20041;-78
2022/04/28 06:54:39;;;;;;;11.75;4.43;;;10.60;99.90;;;;;;4974935;28;20048;-78
2022/04/28 06:57:05;;;;;;;12.32;4.97;;;10.80;99.90;;;;;;4989705;28;20124;-79
2022/04/28 06:59:34;;;;;;;14.55;4.78;;;11.10;99.90;;;;;;4978521;28;20046;-79
2022/04/28 07:02:06;;;;;;;11.52;4.20;;;11.40;99.90;;;;;;4990531;28;20062;-78
2022/04/28 07:04:32;;;;;;;15.00;3.92;;;11.70;99.90;;;;;;5025469;28;20061;-78
2022/04/28 07:07:07;;;;;;;9.43;3.38;;;11.80;99.90;;;;;;4994888;28;20054;-80
2022/04/28 07:09:33;;;;;;;14.23;3.67;;;11.60;99.90;;;;;;5012418;28;20045;-81
2022/04/28 07:11:59;;;;;;;9.13;3.25;;;11.50;99.90;;;;;;5007646;28;20080;-80
2022/04/28 07:14:24;;;;;;;12.15;2.95;;;11.30;99.90;;;;;;4975078;28;20046;-81
2022/04/28 07:16:50;;;;;;;12.57;2.90;;;11.20;99.90;;;;;;4970395;28;20046;-81
2022/04/28 07:19:16;;;;;;;6.80;2.53;;;11.10;99.90;;;;;;4973591;28;20065;-81
2022/04/28 07:21:41;;;;;;;8.95;2.63;;;11.10;99.90;;;;;;4971817;28;20061;-81
2022/04/28 07:24:07;;;;;;;6.95;2.50;;;11.00;99.90;;;;;;5005808;28;20042;-80
2022/04/28 07:26:33;;;;;;;8.00;2.45;;;10.90;99.90;;;;;;4974323;28;20052;-81
2022/04/28 07:28:58;;;;;;;9.93;3.13;;;10.90;99.90;;;;;;4969877;28;20081;-82
2022/04/28 07:31:24;;;;;;;6.55;2.03;;;10.80;99.90;;;;;;5001028;28;20053;-80
2022/04/28 07:33:50;;;;;;;6.38;2.03;;;10.90;99.90;;;;;;5004311;28;20069;-81
2022/04/28 07:36:16;;;;;;;6.47;2.65;;;11.00;99.90;;;;;;4973665;28;20042;-81
2022/04/28 07:38:42;;;;;;;10.25;1.90;;;11.10;99.90;;;;;;4971518;28;20054;-81
2022/04/28 07:41:08;;;;;;;9.48;2.13;;;11.30;99.90;;;;;;4958626;28;20073;-81
2022/04/28 07:43:33;;;;;;;7.47;2.00;;;11.40;99.90;;;;;;5006047;28;20061;-83
2022/04/28 07:45:59;;;;;;;8.98;2.45;;;11.50;99.90;;;;;;4989597;28;20050;-81
2022/04/28 07:48:25;;;;;;;22.98;8.45;;;11.70;99.90;;;;;;4972632;28;20050;-82
2022/04/28 07:50:51;;;;;;;20.83;6.45;;;11.70;99.90;;;;;;4973148;28;20045;-82
2022/04/28 07:53:17;;;;;;;18.02;6.85;;;11.70;99.90;;;;;;4983188;28;20078;-82
2022/04/28 07:55:43;;;;;;;10.38;3.45;;;11.60;99.90;;;;;;4962173;28;20046;-82
2022/04/28 07:58:09;;;;;;;7.53;2.38;;;11.70;99.90;;;;;;4979543;28;20065;-83
2022/04/28 08:00:35;;;;;;;8.60;2.10;;;11.70;99.90;;;;;;4961466;28;20065;-83
2022/04/28 08:03:00;;;;;;;11.48;2.60;;;11.80;99.90;;;;;;4971140;28;20054;-82
2022/04/28 08:05:26;;;;;;;12.20;2.03;;;12.10;99.90;;;;;;4965182;28;20409;-81
2022/04/28 08:07:52;;;;;;;6.65;2.25;;;12.40;99.90;;;;;;4982405;28;20538;-79
2022/04/28 08:10:18;;;;;;;9.15;2.30;;;12.60;99.90;;;;;;4972966;28;20882;-81
2022/04/28 08:12:43;;;;;;;8.68;2.85;;;12.70;99.00;;;;;;5002056;28;20069;-81
2022/04/28 08:15:10;;;;;;;6.93;2.30;;;12.80;98.70;;;;;;4987532;28;20052;-81
2022/04/28 08:17:36;;;;;;;12.05;2.08;;;12.90;98.90;;;;;;4973109;28;20404;-82
2022/04/28 08:20:02;;;;;;;8.40;1.90;;;13.10;97.00;;;;;;5004867;28;20049;-82
2022/04/28 08:22:28;;;;;;;8.88;2.15;;;13.30;96.10;;;;;;4988861;28;20049;-81
2022/04/28 08:24:53;;;;;;;5.82;1.90;;;13.40;93.10;;;;;;4989835;28;20656;-82
2022/04/28 08:27:24;;;;;;;7.82;1.73;;;13.50;92.30;;;;;;5005325;28;20038;-81
2022/04/28 08:29:50;;;;;;;9.30;2.20;;;13.50;91.20;;;;;;4973394;28;20069;-81
2022/04/28 08:32:16;;;;;;;8.52;1.90;;;13.60;90.00;;;;;;4999637;28;20081;-82
2022/04/28 08:34:42;;;;;;;8.80;2.00;;;13.70;87.50;;;;;;5004467;28;20069;-81
2022/04/28 08:37:08;;;;;;;7.53;1.98;;;13.70;86.90;;;;;;4988624;28;20049;-81
2022/04/28 08:39:34;;;;;;;5.38;1.90;;;13.70;85.50;;;;;;5004152;28;20050;-82
2022/04/28 08:42:00;;;;;;;6.95;1.90;;;13.80;87.30;;;;;;4990282;28;20405;-82
2022/04/28 08:44:27;;;;;;;8.48;2.17;;;13.80;85.10;;;;;;5009974;28;20112;-81
2022/04/28 08:46:54;;;;;;;4.88;1.65;;;13.80;84.50;;;;;;4990939;28;20057;-81
2022/04/28 08:49:26;;;;;;;9.27;1.70;;;14.00;82.70;;;;;;4972278;28;20092;-81
2022/04/28 08:51:55;;;;;;;7.13;1.65;;;14.20;79.80;;;;;;5023970;28;20053;-82
2022/04/28 08:54:22;;;;;;;8.48;2.40;;;14.20;78.80;;;;;;5009399;28;20041;-81
2022/04/28 08:56:50;;;;;;;9.95;2.38;;;14.10;78.70;;;;;;4976185;28;20429;-81
2022/04/28 08:59:15;;;;;;;9.95;2.42;;;14.70;78.80;;;;;;5008962;28;20052;-81
2022/04/28 09:01:42;;;;;;;9.30;2.17;;;15.00;75.10;;;;;;5025959;28;20058;-82
2022/04/28 09:04:10;;;;;;;20.50;5.70;;;15.00;73.80;;;;;;4976191;28;20113;-81
2022/04/28 09:06:40;;;;;;;18.48;5.88;;;14.90;73.90;;;;;;5006736;28;20555;-82
2022/04/28 09:09:11;;;;;;;12.48;3.35;;;14.70;74.40;;;;;;4990301;28;20050;-82
2022/04/28 09:11:40;;;;;;;24.05;6.78;;;14.60;73.10;;;;;;4990686;28;20458;-81
2022/04/28 09:14:18;;;;;;;13.77;4.40;;;14.40;74.50;;;;;;4960279;28;20046;-82
2022/04/28 09:16:51;;;;;;;7.20;2.05;;;14.40;73.20;;;;;;4992802;28;20054;-82
2022/04/28 09:19:22;;;;;;;40.50;11.05;;;14.30;72.80;;;;;;4972216;28;20050;-81
2022/04/28 09:21:50;;;;;;;12.57;4.10;;;14.30;73.80;;;;;;5026056;28;20500;-82
2022/04/28 09:24:16;;;;;;;8.18;1.90;;;14.20;74.00;;;;;;5025538;28;20110;-81
2022/04/28 09:26:42;;;;;;;12.07;1.83;;;14.20;73.50;;;;;;4992801;28;20128;-81
2022/04/28 09:29:16;;;;;;;8.43;2.78;;;14.20;74.40;;;;;;5005532;28;20050;-82
2022/04/28 09:31:44;;;;;;;7.13;2.28;;;14.30;73.10;;;;;;4994116;28;20496;-82
2022/04/28 09:34:14;;;;;;;6.25;2.45;;;14.50;72.80;;;;;;4975987;28;20041;-81
2022/04/28 09:36:41;;;;;;;14.70;2.20;;;14.70;72.00;;;;;;4984249;28;20045;-81
2022/04/28 09:39:09;;;;;;;7.75;2.30;;;15.20;70.50;;;;;;4975476;28;20057;-81
2022/04/28 09:44:20;;;;;;;9.82;2.25;;;15.50;67.70;;;;;;4991674;28;20089;-82
2022/04/28 09:46:47;;;;;;;12.60;2.35;;;15.40;66.60;;;;;;5025123;28;20085;-82
2022/04/28 09:49:17;;;;;;;6.95;1.90;;;15.30;66.40;;;;;;5006180;28;20056;-81
2022/04/28 09:51:43;;;;;;;6.15;2.40;;;15.40;67.80;;;;;;5002897;28;20060;-81
2022/04/28 09:54:12;;;;;;;6.80;1.90;;;15.80;67.20;;;;;;4989617;28;20053;-81
2022/04/28 09:56:39;;;;;;;8.38;1.98;;;16.10;66.40;;;;;;5010270;28;20044;-81
2022/04/28 09:59:08;;;;;;;7.30;2.28;;;16.20;65.30;;;;;;4970866;28;20412;-83
2022/04/28 10:01:35;;;;;;;7.35;2.13;;;16.00;63.90;;;;;;4990192;28;20389;-80
2022/04/28 10:04:01;;;;;;;13.25;2.88;;;15.90;63.70;;;;;;4991243;28;20117;-81
2022/04/28 10:06:34;;;;;;;10.55;2.40;;;15.60;64.50;;;;;;5007142;28;20061;-81
2022/04/28 10:09:08;;;;;;;8.60;2.15;;;15.50;64.90;;;;;;5007462;28;20501;-82
2022/04/28 10:11:35;;;;;;;6.95;2.55;;;15.60;65.10;;;;;;4991221;28;20204;-82
2022/04/28 10:14:04;;;;;;;11.35;3.35;;;15.60;65.20;;;;;;5008137;28;20042;-82
2022/04/28 10:16:30;;;;;;;9.00;3.25;;;15.60;65.10;;;;;;4991277;28;20184;-82
2022/04/28 10:19:12;;;;;;;9.70;3.28;;;15.60;65.40;;;;;;4975802;28;20552;-82
2022/04/28 10:21:47;;;;;;;10.25;3.05;;;15.60;64.20;;;;;;4989256;28;20081;-82
2022/04/28 10:33:19;;;;;;;10.80;3.22;;;15.50;65.00;;;;;;4997724;28;20149;-83
2022/04/28 10:35:49;;;;;;;12.43;4.38;;;15.50;64.80;;;;;;5004665;28;20249;-81
2022/04/28 10:38:14;;;;;;;8.80;4.15;;;15.50;65.50;;;;;;4986164;28;20041;-80
2022/04/28 10:41:10;;;;;;;10.25;4.05;;;15.60;65.70;;;;;;5006594;28;20385;-80
2022/04/28 10:43:42;;;;;;;10.25;3.33;;;15.60;62.20;;;;;;4985780;28;20062;-82
2022/04/28 10:46:08;;;;;;;9.38;3.50;;;15.60;64.20;;;;;;5004466;28;20326;-82
2022/04/28 10:48:44;;;;;;;8.98;3.50;;;15.80;65.00;;;;;;5003924;28;20141;-80
2022/04/28 10:51:26;;;;;;;11.88;3.78;;;16.00;64.20;;;;;;5002038;28;20420;-83
2022/04/28 10:53:55;;;;;;;9.48;4.05;;;16.10;62.60;;;;;;4987359;28;20112;-81
2022/04/28 10:56:22;;;;;;;7.95;3.25;;;16.20;62.50;;;;;;4988271;28;20050;-81
2022/04/28 10:58:47;;;;;;;8.60;3.85;;;16.40;61.50;;;;;;5005450;28;20050;-80
2022/04/28 11:01:33;;;;;;;10.82;3.85;;;16.70;61.20;;;;;;4979360;28;20141;-83
2022/04/28 11:04:00;;;;;;;10.23;3.67;;;17.10;58.50;;;;;;4972046;28;20056;-80
2022/04/28 11:06:34;;;;;;;8.90;3.53;;;17.00;58.90;;;;;;4956079;28;20133;-80
2022/04/28 11:09:02;;;;;;;12.15;3.60;;;17.00;58.90;;;;;;4988843;28;20085;-80
2022/04/28 11:11:42;;;;;;;9.95;4.03;;;17.00;59.30;;;;;;4962201;28;20105;-80
2022/04/28 11:14:08;;;;;;;10.85;3.78;;;17.10;57.70;;;;;;4998041;28;20148;-80
2022/04/28 11:16:34;;;;;;;15.63;3.33;;;17.00;58.80;;;;;;5007607;28;20152;-80
2022/04/28 11:19:03;;;;;;;11.55;4.18;;;16.80;58.60;;;;;;5008493;28;20076;-81
2022/04/28 11:21:29;;;;;;;7.28;2.78;;;16.70;59.60;;;;;;4970493;28;20617;-80
2022/04/28 11:23:57;;;;;;;11.15;3.55;;;16.80;60.10;;;;;;4972580;28;20134;-80
2022/04/28 11:26:29;;;;;;;6.95;3.10;;;16.90;58.90;;;;;;4972977;28;20085;-81
2022/04/28 11:28:55;;;;;;;8.40;3.50;;;17.10;59.30;;;;;;5005535;28;20052;-81
2022/04/28 11:31:21;;;;;;;8.85;2.92;;;17.20;59.20;;;;;;4974627;28;20049;-81
2022/04/28 11:33:49;;;;;;;12.80;3.72;;;17.10;58.60;;;;;;4991158;28;20050;-81
2022/04/28 11:36:28;;;;;;;10.93;3.20;;;17.00;58.30;;;;;;4978676;28;20547;-82
2022/04/28 11:38:55;;;;;;;7.93;2.75;;;16.90;57.60;;;;;;5034674;28;20165;-80
2022/04/28 11:41:41;;;;;;;12.20;3.13;;;16.80;58.20;;;;;;4992472;28;20042;-80
2022/04/28 11:44:13;;;;;;;10.70;3.40;;;16.60;57.80;;;;;;4977038;28;20050;-79
2022/04/28 11:46:45;;;;;;;10.65;3.20;;;16.60;59.40;;;;;;4993679;28;20050;-80
2022/04/28 11:49:11;;;;;;;8.05;2.53;;;17.30;59.00;;;;;;4993625;28;20046;-80
2022/04/28 11:51:37;;;;;;;7.95;2.78;;;17.80;56.70;;;;;;4960395;28;20049;-80
2022/04/28 11:54:21;;;;;;;7.88;2.90;;;17.90;55.90;;;;;;4972177;28;20050;-80
2022/04/28 11:56:48;;;;;;;9.15;2.60;;;17.80;54.20;;;;;;4981124;28;20045;-80
2022/04/28 11:59:13;;;;;;;10.48;3.10;;;17.30;55.80;;;;;;4979738;28;20065;-81
2022/04/28 12:01:39;;;;;;;11.98;3.17;;;17.00;56.70;;;;;;5005692;28;20348;-80
2022/04/28 12:04:06;;;;;;;12.35;2.95;;;16.80;57.90;;;;;;4957511;28;20081;-80
2022/04/28 12:06:33;;;;;;;7.15;2.53;;;16.80;58.70;;;;;;4971564;28;20530;-80
2022/04/28 12:14:32;;;;;;;11.55;3.00;;;16.80;58.60;;;;;;4981142;28;20061;-81
2022/04/28 12:19:59;;;;;;;11.32;3.08;;;16.70;57.70;;;;;;5008819;28;20492;-79
2022/04/28 12:22:40;;;;;;;9.98;2.80;;;16.70;57.80;;;;;;4992581;28;20054;-81
2022/04/28 12:25:11;;;;;;;11.63;3.25;;;16.80;57.70;;;;;;4992377;28;20076;-80
2022/04/28 12:27:39;;;;;;;12.40;3.05;;;16.80;59.10;;;;;;5019078;28;20049;-80
2022/04/28 12:30:08;;;;;;;10.45;3.25;;;16.80;58.90;;;;;;4977262;28;20108;-79
2022/04/28 12:32:46;;;;;;;10.70;2.78;;;17.00;57.70;;;;;;5004313;28;20094;-79
2022/04/28 12:35:30;;;;;;;11.73;2.42;;;17.10;57.10;;;;;;5019312;28;20047;-80
2022/04/28 12:38:07;;;;;;;8.00;2.72;;;17.00;56.50;;;;;;5004890;28;20054;-80
2022/04/28 12:40:42;;;;;;;10.30;2.25;;;17.10;57.50;;;;;;4999413;28;20416;-79
2022/04/28 12:43:09;;;;;;;8.40;2.78;;;17.40;57.00;;;;;;4987597;28;20046;-78
2022/04/28 12:45:50;;;;;;;9.20;2.47;;;17.40;56.80;;;;;;4984987;28;20070;-80
2022/04/28 12:48:30;;;;;;;10.68;2.47;;;17.30;56.00;;;;;;5004931;28;20077;-81
2022/04/28 12:51:17;;;;;;;13.32;3.90;;;17.00;55.90;;;;;;4993281;28;20042;-80
2022/04/28 12:53:48;;;;;;;8.52;2.35;;;16.90;56.90;;;;;;5018965;28;20141;-80
2022/04/28 12:56:32;;;;;;;12.50;2.88;;;16.80;58.20;;;;;;4992449;28;20512;-79
2022/04/28 12:59:08;;;;;;;11.25;2.45;;;16.70;56.90;;;;;;4988634;28;20053;-80
2022/04/28 13:01:36;;;;;;;10.63;3.05;;;16.60;58.10;;;;;;5007012;28;20559;-81
2022/04/28 13:04:19;;;;;;;10.02;2.70;;;16.60;58.60;;;;;;5010287;28;20482;-79
2022/04/28 13:06:46;;;;;;;18.63;2.70;;;16.70;58.60;;;;;;5007368;28;20516;-79
2022/04/28 13:09:16;;;;;;;11.50;3.40;;;16.60;59.40;;;;;;4986702;28;20057;-80
2022/04/28 13:11:43;;;;;;;14.50;2.92;;;16.40;59.60;;;;;;4989563;28;20286;-80
2022/04/28 13:14:10;;;;;;;16.98;2.75;;;16.40;59.70;;;;;;4963436;28;20054;-80
2022/04/28 13:16:37;;;;;;;10.02;2.88;;;16.50;59.20;;;;;;4972879;28;20045;-80
2022/04/28 13:19:04;;;;;;;14.25;2.75;;;16.50;59.00;;;;;;4975156;28;20042;-81
2022/04/28 13:21:31;;;;;;;11.23;3.17;;;16.40;59.10;;;;;;5008251;28;20049;-79
2022/04/28 13:23:58;;;;;;;11.75;3.08;;;16.40;58.90;;;;;;5009432;28;20042;-79
2022/04/28 13:26:26;;;;;;;12.70;3.63;;;16.40;59.00;;;;;;4973698;28;20460;-80
2022/04/28 13:28:53;;;;;;;11.10;3.13;;;16.50;58.70;;;;;;5007912;28;20141;-78